Terminal Aerodrome Forecast
Issued by NWS Sioux Falls, SD

Home | Current Version | Previous Version | Text Only | Print | Product List | Glossary On
Versions: 1 2 3 4 5 6 7 8 9 10 11 12
640
FTUS43 KFSD 141723
TAFHON
TAF
KHON 141723Z 1418/1518 32004KT P6SM SKC
     FM142000 VRB04KT P6SM SKC
     FM150000 17004KT P6SM FEW250=

USA.gov is the U.S. government's official web portal to all federal, state and local government web resources and services.